Coolidge, New Mexico
Current Conditions -  °F | °C
As of 12:53 AM on Saturday 29 Nov 2014 (Local Time) from KGUP Reporting Station
Clear Clear  
Wind Chill: 25°   Ceiling: Unl
Heat Index: 25°   Visibility: 10mi
Dew Point:   Wind: 3mph
Humidity: 39%   Direction: 60°ENE
Pressure: 30.1"   Gusts: NA
Location:  35.4745°N, 108.45°W
Report Text: KGUP 290753Z AUTO 06003KT 10SM CLR M04/M16 A3010 RMK AO2 SLP144 T10391161
Loading
Personal Weather Stations






























Interactive Weather Map New forecast layout! Learn more

10-Day Weather Forecast

Advertisements
Track Severe Weather on mobile